Sturdivant, Missouri
Current Conditions -  °F | °C
As of 11:53 PM on Saturday 22 Nov 2014 (Local Time) from KPOF Reporting Station
Clear Clear  
Wind Chill: 50°   Ceiling: Unl
Heat Index: 50°   Visibility: 10mi
Dew Point: 39°   Wind: 8mph
Humidity: 66%   Direction: 160°SSE
Pressure: 29.9"   Gusts: NA
Location:  37.05°N, 90.01°W
Report Text: KPOF 230553Z AUTO 16007KT 10SM CLR 10/04 A2990 RMK AO2 SLP126 T01000039 10139 20094 401780028 56026
Loading
Personal Weather Stations






























Interactive Weather Map New forecast layout! Learn more

10-Day Weather Forecast

Advertisements
Track Severe Weather on mobile